sensor_id;sensor_type;location;lat;lon;timestamp;pressure;altitude;pressure_sealevel;temperature;humidity
65276;BME280;51875;49.994;14.052;2022-10-16T00:00:34;98260.03;;;14.18;100.00
65276;BME280;51875;49.994;14.052;2022-10-16T00:02:10;98266.53;;;14.30;100.00
65276;BME280;51875;49.994;14.052;2022-10-16T00:03:25;98267.94;;;14.37;100.00
65276;BME280;51875;49.994;14.052;2022-10-16T00:04:41;98265.19;;;14.40;100.00
65276;BME280;51875;49.994;14.052;2022-10-16T00:05:59;98267.28;;;14.12;100.00
65276;BME280;51875;49.994;14.052;2022-10-16T00:07:15;98267.31;;;14.32;100.00
65276;BME280;51875;49.994;14.052;2022-10-16T00:08:31;98269.41;;;14.23;100.00
65276;BME280;51875;49.994;14.052;2022-10-16T00:09:47;98269.88;;;14.33;100.00
65276;BME280;51875;49.994;14.052;2022-10-16T00:11:12;98270.94;;;14.48;100.00
65276;BME280;51875;49.994;14.052;2022-10-16T00:12:28;98270.56;;;14.37;100.00
65276;BME280;51875;49.994;14.052;2022-10-16T00:13:45;98272.16;;;14.22;100.00
65276;BME280;51875;49.994;14.052;2022-10-16T00:15:02;98260.47;;;14.27;100.00
65276;BME280;51875;49.994;14.052;2022-10-16T00:16:18;98267.31;;;14.32;100.00
65276;BME280;51875;49.994;14.052;2022-10-16T00:17:34;98269.72;;;14.36;100.00
65276;BME280;51875;49.994;14.052;2022-10-16T00:18:50;98266.66;;;14.46;100.00
65276;BME280;51875;49.994;14.052;2022-10-16T00:20:05;98264.38;;;14.38;100.00
65276;BME280;51875;49.994;14.052;2022-10-16T00:21:24;98264.38;;;14.38;100.00
65276;BME280;51875;49.994;14.052;2022-10-16T00:22:40;98265.88;;;14.44;100.00
65276;BME280;51875;49.994;14.052;2022-10-16T00:24:00;98268.16;;;14.13;100.00
65276;BME280;51875;49.994;14.052;2022-10-16T00:25:16;98273.13;;;14.19;100.00
65276;BME280;51875;49.994;14.052;2022-10-16T00:26:33;98269.63;;;14.38;100.00
65276;BME280;51875;49.994;14.052;2022-10-16T00:27:49;98272.38;;;14.36;100.00
65276;BME280;51875;49.994;14.052;2022-10-16T00:29:05;98270.00;;;14.49;100.00
65276;BME280;51875;49.994;14.052;2022-10-16T00:30:20;98275.22;;;14.51;100.00
65276;BME280;51875;49.994;14.052;2022-10-16T00:31:36;98269.56;;;14.59;100.00
65276;BME280;51875;49.994;14.052;2022-10-16T00:32:52;98274.06;;;14.57;100.00
65276;BME280;51875;49.994;14.052;2022-10-16T00:34:07;98273.75;;;14.63;100.00
65276;BME280;51875;49.994;14.052;2022-10-16T00:35:23;98278.88;;;14.66;100.00
65276;BME280;51875;49.994;14.052;2022-10-16T00:36:38;98280.69;;;14.65;100.00
65276;BME280;51875;49.994;14.052;2022-10-16T00:37:54;98283.03;;;14.72;100.00
65276;BME280;51875;49.994;14.052;2022-10-16T00:39:10;98275.00;;;14.75;100.00
65276;BME280;51875;49.994;14.052;2022-10-16T00:40:25;98273.84;;;14.61;100.00
65276;BME280;51875;49.994;14.052;2022-10-16T00:41:41;98264.94;;;14.64;100.00
65276;BME280;51875;49.994;14.052;2022-10-16T00:42:57;98265.59;;;14.50;100.00
65276;BME280;51875;49.994;14.052;2022-10-16T00:44:45;98269.63;;;14.57;100.00
65276;BME280;51875;49.994;14.052;2022-10-16T00:46:02;98275.47;;;14.45;100.00
65276;BME280;51875;49.994;14.052;2022-10-16T00:47:34;98274.22;;;14.53;100.00
65276;BME280;51875;49.994;14.052;2022-10-16T00:48:57;98282.91;;;14.55;100.00
65276;BME280;51875;49.994;14.052;2022-10-16T00:50:21;98283.16;;;14.68;100.00
65276;BME280;51875;49.994;14.052;2022-10-16T00:52:56;98281.59;;;14.64;100.00
65276;BME280;51875;49.994;14.052;2022-10-16T00:54:31;98284.69;;;14.74;100.00
65276;BME280;51875;49.994;14.052;2022-10-16T00:55:48;98280.19;;;14.76;100.00
65276;BME280;51875;49.994;14.052;2022-10-16T00:57:05;98291.81;;;14.72;100.00
65276;BME280;51875;49.994;14.052;2022-10-16T00:58:21;98284.75;;;14.73;100.00
65276;BME280;51875;49.994;14.052;2022-10-16T00:59:40;98288.94;;;14.58;100.00
65276;BME280;51875;49.994;14.052;2022-10-16T01:00:56;98292.06;;;14.27;100.00
65276;BME280;51875;49.994;14.052;2022-10-16T01:02:14;98288.22;;;14.35;100.00
65276;BME280;51875;49.994;14.052;2022-10-16T01:03:35;98281.81;;;14.21;100.00
65276;BME280;51875;49.994;14.052;2022-10-16T01:04:53;98285.09;;;14.26;100.00
65276;BME280;51875;49.994;14.052;2022-10-16T01:06:23;98280.03;;;14.22;100.00
65276;BME280;51875;49.994;14.052;2022-10-16T01:09:17;98273.88;;;14.42;100.00
65276;BME280;51875;49.994;14.052;2022-10-16T01:10:57;98272.13;;;14.03;100.00
65276;BME280;51875;49.994;14.052;2022-10-16T01:13:55;98279.50;;;13.94;100.00
65276;BME280;51875;49.994;14.052;2022-10-16T01:17:04;98281.81;;;14.21;100.00
65276;BME280;51875;49.994;14.052;2022-10-16T01:18:42;98282.47;;;14.26;100.00
65276;BME280;51875;49.994;14.052;2022-10-16T01:20:10;98278.25;;;14.22;100.00
65276;BME280;51875;49.994;14.052;2022-10-16T01:21:35;98277.41;;;14.22;100.00
65276;BME280;51875;49.994;14.052;2022-10-16T01:23:10;98280.28;;;13.96;100.00
65276;BME280;51875;49.994;14.052;2022-10-16T01:24:37;98284.75;;;13.94;100.00
65276;BME280;51875;49.994;14.052;2022-10-16T01:27:33;98285.28;;;14.03;100.00
65276;BME280;51875;49.994;14.052;2022-10-16T01:28:55;98292.53;;;13.97;100.00
65276;BME280;51875;49.994;14.052;2022-10-16T01:30:23;98293.59;;;13.73;100.00
65276;BME280;51875;49.994;14.052;2022-10-16T01:31:41;98291.38;;;13.84;100.00
65276;BME280;51875;49.994;14.052;2022-10-16T01:33:03;98289.72;;;13.81;100.00
65276;BME280;51875;49.994;14.052;2022-10-16T01:34:49;98285.53;;;13.96;100.00
65276;BME280;51875;49.994;14.052;2022-10-16T01:36:11;98286.88;;;13.65;100.00
65276;BME280;51875;49.994;14.052;2022-10-16T01:37:36;98291.03;;;13.92;100.00
65276;BME280;51875;49.994;14.052;2022-10-16T01:38:56;98292.97;;;14.07;100.00
65276;BME280;51875;49.994;14.052;2022-10-16T01:40:17;98292.06;;;14.08;100.00
65276;BME280;51875;49.994;14.052;2022-10-16T01:41:48;98302.41;;;13.92;100.00
65276;BME280;51875;49.994;14.052;2022-10-16T01:43:10;98294.16;;;14.00;100.00
65276;BME280;51875;49.994;14.052;2022-10-16T01:44:32;98296.28;;;13.92;100.00
65276;BME280;51875;49.994;14.052;2022-10-16T01:45:49;98297.50;;;13.64;100.00
65276;BME280;51875;49.994;14.052;2022-10-16T01:47:07;98290.69;;;13.79;100.00
65276;BME280;51875;49.994;14.052;2022-10-16T01:48:24;98291.88;;;13.92;100.00
65276;BME280;51875;49.994;14.052;2022-10-16T01:49:41;98280.41;;;13.93;100.00
65276;BME280;51875;49.994;14.052;2022-10-16T01:51:06;98286.34;;;13.98;100.00
65276;BME280;51875;49.994;14.052;2022-10-16T01:52:26;98283.13;;;13.71;100.00
65276;BME280;51875;49.994;14.052;2022-10-16T01:53:47;98286.38;;;13.57;100.00
65276;BME280;51875;49.994;14.052;2022-10-16T01:55:06;98277.47;;;13.60;100.00
65276;BME280;51875;49.994;14.052;2022-10-16T01:56:24;98280.50;;;13.71;100.00
65276;BME280;51875;49.994;14.052;2022-10-16T01:57:45;98277.22;;;13.66;100.00
65276;BME280;51875;49.994;14.052;2022-10-16T01:59:13;98278.66;;;13.94;100.00
65276;BME280;51875;49.994;14.052;2022-10-16T02:00:31;98275.81;;;13.98;100.00
65276;BME280;51875;49.994;14.052;2022-10-16T02:01:49;98272.84;;;14.06;100.00
65276;BME280;51875;49.994;14.052;2022-10-16T02:03:06;98269.19;;;14.09;100.00
65276;BME280;51875;49.994;14.052;2022-10-16T02:04:36;98274.59;;;14.06;100.00
65276;BME280;51875;49.994;14.052;2022-10-16T02:05:54;98269.63;;;14.00;100.00
65276;BME280;51875;49.994;14.052;2022-10-16T02:07:11;98269.34;;;14.06;100.00
65276;BME280;51875;49.994;14.052;2022-10-16T02:08:28;98265.56;;;13.92;100.00
65276;BME280;51875;49.994;14.052;2022-10-16T02:09:45;98268.41;;;14.07;100.00
65276;BME280;51875;49.994;14.052;2022-10-16T02:11:21;98275.69;;;14.02;100.00
65276;BME280;51875;49.994;14.052;2022-10-16T02:12:49;98272.06;;;14.23;100.00
65276;BME280;51875;49.994;14.052;2022-10-16T02:14:11;98276.41;;;14.24;100.00
65276;BME280;51875;49.994;14.052;2022-10-16T02:15:27;98279.84;;;14.26;100.00
65276;BME280;51875;49.994;14.052;2022-10-16T02:16:44;98278.13;;;14.25;100.00
65276;BME280;51875;49.994;14.052;2022-10-16T02:18:02;98282.97;;;14.35;100.00
65276;BME280;51875;49.994;14.052;2022-10-16T02:19:19;98284.50;;;14.01;100.00
65276;BME280;51875;49.994;14.052;2022-10-16T02:20:47;98281.09;;;13.98;100.00
65276;BME280;51875;49.994;14.052;2022-10-16T02:22:05;98285.88;;;13.89;100.00
65276;BME280;51875;49.994;14.052;2022-10-16T02:23:40;98288.84;;;14.02;100.00
65276;BME280;51875;49.994;14.052;2022-10-16T02:25:05;98277.56;;;14.19;100.00
65276;BME280;51875;49.994;14.052;2022-10-16T02:26:35;98287.78;;;14.25;100.00
65276;BME280;51875;49.994;14.052;2022-10-16T02:27:58;98285.44;;;14.38;100.00
65276;BME280;51875;49.994;14.052;2022-10-16T02:29:23;98287.25;;;14.37;100.00
65276;BME280;51875;49.994;14.052;2022-10-16T02:30:48;98293.50;;;14.35;100.00
65276;BME280;51875;49.994;14.052;2022-10-16T02:32:06;98290.06;;;14.33;100.00
65276;BME280;51875;49.994;14.052;2022-10-16T02:33:24;98289.56;;;14.24;100.00
65276;BME280;51875;49.994;14.052;2022-10-16T02:34:41;98288.78;;;14.22;100.00
65276;BME280;51875;49.994;14.052;2022-10-16T02:35:57;98293.72;;;13.90;100.00
65276;BME280;51875;49.994;14.052;2022-10-16T02:37:13;98290.38;;;14.26;100.00
65276;BME280;51875;49.994;14.052;2022-10-16T02:38:29;98293.00;;;14.26;100.00
65276;BME280;51875;49.994;14.052;2022-10-16T02:39:45;98290.84;;;14.35;100.00
65276;BME280;51875;49.994;14.052;2022-10-16T02:41:01;98290.16;;;14.50;100.00
65276;BME280;51875;49.994;14.052;2022-10-16T02:42:18;98288.06;;;14.38;100.00
65276;BME280;51875;49.994;14.052;2022-10-16T02:43:34;98293.06;;;14.44;100.00
65276;BME280;51875;49.994;14.052;2022-10-16T02:44:50;98299.59;;;14.16;100.00
65276;BME280;51875;49.994;14.052;2022-10-16T02:46:05;98301.97;;;14.41;100.00
65276;BME280;51875;49.994;14.052;2022-10-16T02:47:21;98301.88;;;14.24;100.00
65276;BME280;51875;49.994;14.052;2022-10-16T02:48:36;98301.72;;;14.08;100.00
65276;BME280;51875;49.994;14.052;2022-10-16T02:49:52;98306.28;;;14.23;100.00
65276;BME280;51875;49.994;14.052;2022-10-16T02:51:08;98297.41;;;14.26;100.00
65276;BME280;51875;49.994;14.052;2022-10-16T02:52:23;98304.50;;;14.05;100.00
65276;BME280;51875;49.994;14.052;2022-10-16T02:53:39;98300.97;;;13.85;100.00
65276;BME280;51875;49.994;14.052;2022-10-16T02:54:54;98303.44;;;13.67;100.00
65276;BME280;51875;49.994;14.052;2022-10-16T02:56:10;98305.44;;;13.83;100.00
65276;BME280;51875;49.994;14.052;2022-10-16T02:57:26;98301.47;;;13.93;100.00
65276;BME280;51875;49.994;14.052;2022-10-16T02:58:41;98294.53;;;14.11;100.00
65276;BME280;51875;49.994;14.052;2022-10-16T02:59:57;98300.03;;;14.26;100.00
65276;BME280;51875;49.994;14.052;2022-10-16T03:01:13;98301.75;;;14.27;100.00
65276;BME280;51875;49.994;14.052;2022-10-16T03:02:29;98294.78;;;14.26;100.00
65276;BME280;51875;49.994;14.052;2022-10-16T03:03:44;98301.72;;;14.08;100.00
65276;BME280;51875;49.994;14.052;2022-10-16T03:05:00;98297.16;;;14.11;100.00
65276;BME280;51875;49.994;14.052;2022-10-16T03:06:16;98306.69;;;13.95;100.00
65276;BME280;51875;49.994;14.052;2022-10-16T03:07:32;98316.59;;;14.09;100.00
65276;BME280;51875;49.994;14.052;2022-10-16T03:08:47;98317.06;;;14.19;100.00
65276;BME280;51875;49.994;14.052;2022-10-16T03:10:03;98314.63;;;14.14;100.00
65276;BME280;51875;49.994;14.052;2022-10-16T03:11:19;98323.69;;;14.07;100.00
65276;BME280;51875;49.994;14.052;2022-10-16T03:12:34;98323.78;;;14.24;100.00
65276;BME280;51875;49.994;14.052;2022-10-16T03:13:50;98331.16;;;14.37;100.00
65276;BME280;51875;49.994;14.052;2022-10-16T03:15:06;98328.16;;;14.45;100.00
65276;BME280;51875;49.994;14.052;2022-10-16T03:16:22;98330.16;;;14.59;100.00
65276;BME280;51875;49.994;14.052;2022-10-16T03:17:38;98331.09;;;14.38;100.00
65276;BME280;51875;49.994;14.052;2022-10-16T03:18:53;98335.38;;;14.41;100.00
65276;BME280;51875;49.994;14.052;2022-10-16T03:20:09;98337.63;;;14.30;100.00
65276;BME280;51875;49.994;14.052;2022-10-16T03:21:25;98338.06;;;14.39;100.00
65276;BME280;51875;49.994;14.052;2022-10-16T03:22:40;98339.78;;;14.60;100.00
65276;BME280;51875;49.994;14.052;2022-10-16T03:23:56;98339.16;;;14.54;100.00
65276;BME280;51875;49.994;14.052;2022-10-16T03:25:11;98334.28;;;14.45;100.00
65276;BME280;51875;49.994;14.052;2022-10-16T03:26:27;98334.00;;;14.32;100.00
65276;BME280;51875;49.994;14.052;2022-10-16T03:27:42;98340.94;;;14.14;100.00
65276;BME280;51875;49.994;14.052;2022-10-16T03:28:58;98338.41;;;14.32;100.00
65276;BME280;51875;49.994;14.052;2022-10-16T03:30:14;98343.09;;;14.25;100.00
65276;BME280;51875;49.994;14.052;2022-10-16T03:31:30;98337.44;;;14.13;100.00
65276;BME280;51875;49.994;14.052;2022-10-16T03:32:45;98339.53;;;14.26;100.00
65276;BME280;51875;49.994;14.052;2022-10-16T03:34:01;98334.69;;;14.36;100.00
65276;BME280;51875;49.994;14.052;2022-10-16T03:35:17;98334.50;;;14.01;100.00
65276;BME280;51875;49.994;14.052;2022-10-16T03:36:32;98332.66;;;14.03;100.00
65276;BME280;51875;49.994;14.052;2022-10-16T03:37:48;98331.59;;;14.07;100.00
65276;BME280;51875;49.994;14.052;2022-10-16T03:39:03;98343.28;;;13.80;100.00
65276;BME280;51875;49.994;14.052;2022-10-16T03:40:19;98337.13;;;14.01;100.00
65276;BME280;51875;49.994;14.052;2022-10-16T03:41:34;98336.81;;;13.67;100.00
65276;BME280;51875;49.994;14.052;2022-10-16T03:42:50;98323.19;;;13.78;100.00
65276;BME280;51875;49.994;14.052;2022-10-16T03:44:05;98326.91;;;14.13;100.00
65276;BME280;51875;49.994;14.052;2022-10-16T03:45:21;98322.34;;;13.98;100.00
65276;BME280;51875;49.994;14.052;2022-10-16T03:46:37;98322.91;;;14.05;100.00
65276;BME280;51875;49.994;14.052;2022-10-16T03:47:52;98318.38;;;13.88;100.00
65276;BME280;51875;49.994;14.052;2022-10-16T03:49:08;98317.78;;;13.81;100.00
65276;BME280;51875;49.994;14.052;2022-10-16T03:50:23;98314.53;;;14.16;100.00
65276;BME280;51875;49.994;14.052;2022-10-16T03:51:39;98330.28;;;13.96;100.00
65276;BME280;51875;49.994;14.052;2022-10-16T03:52:55;98335.94;;;13.46;100.00
65276;BME280;51875;49.994;14.052;2022-10-16T03:54:10;98332.28;;;13.91;100.00
65276;BME280;51875;49.994;14.052;2022-10-16T03:55:26;98335.91;;;13.68;100.00
65276;BME280;51875;49.994;14.052;2022-10-16T03:56:42;98332.56;;;13.85;100.00
65276;BME280;51875;49.994;14.052;2022-10-16T03:57:57;98334.72;;;13.96;100.00
65276;BME280;51875;49.994;14.052;2022-10-16T03:59:13;98346.06;;;13.96;100.00
65276;BME280;51875;49.994;14.052;2022-10-16T04:00:28;98344.41;;;14.15;100.00
65276;BME280;51875;49.994;14.052;2022-10-16T04:01:44;98346.91;;;14.18;100.00
65276;BME280;51875;49.994;14.052;2022-10-16T04:03:00;98351.28;;;14.19;100.00
65276;BME280;51875;49.994;14.052;2022-10-16T04:04:15;98354.75;;;14.19;100.00
65276;BME280;51875;49.994;14.052;2022-10-16T04:05:32;98356.75;;;14.14;100.00
65276;BME280;51875;49.994;14.052;2022-10-16T04:06:47;98356.28;;;13.83;100.00
65276;BME280;51875;49.994;14.052;2022-10-16T04:08:03;98354.19;;;13.92;100.00
65276;BME280;51875;49.994;14.052;2022-10-16T04:09:18;98362.53;;;14.02;100.00
65276;BME280;51875;49.994;14.052;2022-10-16T04:10:34;98362.84;;;14.15;100.00
65276;BME280;51875;49.994;14.052;2022-10-16T04:11:52;98363.59;;;13.97;100.00
65276;BME280;51875;49.994;14.052;2022-10-16T04:13:08;98359.81;;;14.03;100.00
65276;BME280;51875;49.994;14.052;2022-10-16T04:14:23;98354.56;;;13.82;100.00
65276;BME280;51875;49.994;14.052;2022-10-16T04:15:39;98364.63;;;14.14;100.00
65276;BME280;51875;49.994;14.052;2022-10-16T04:16:55;98364.22;;;14.23;100.00
65276;BME280;51875;49.994;14.052;2022-10-16T04:18:10;98368.31;;;14.31;100.00
65276;BME280;51875;49.994;14.052;2022-10-16T04:19:26;98370.59;;;14.18;100.00
65276;BME280;51875;49.994;14.052;2022-10-16T04:20:42;98373.44;;;14.34;100.00
65276;BME280;51875;49.994;14.052;2022-10-16T04:21:57;98365.38;;;14.37;100.00
65276;BME280;51875;49.994;14.052;2022-10-16T04:23:13;98368.47;;;14.47;100.00
65276;BME280;51875;49.994;14.052;2022-10-16T04:24:28;98369.47;;;14.44;100.00
65276;BME280;51875;49.994;14.052;2022-10-16T04:25:44;98368.81;;;14.39;100.00
65276;BME280;51875;49.994;14.052;2022-10-16T04:27:00;98356.75;;;14.14;100.00
65276;BME280;51875;49.994;14.052;2022-10-16T04:28:15;98357.78;;;14.10;100.00
65276;BME280;51875;49.994;14.052;2022-10-16T04:29:30;98365.03;;;14.05;100.00
65276;BME280;51875;49.994;14.052;2022-10-16T04:30:46;98371.00;;;14.29;100.00
65276;BME280;51875;49.994;14.052;2022-10-16T04:32:02;98372.13;;;14.23;100.00
65276;BME280;51875;49.994;14.052;2022-10-16T04:33:17;98362.25;;;14.29;100.00
65276;BME280;51875;49.994;14.052;2022-10-16T04:34:33;98365.88;;;14.26;100.00
65276;BME280;51875;49.994;14.052;2022-10-16T04:35:55;98363.00;;;14.11;100.00
65276;BME280;51875;49.994;14.052;2022-10-16T04:37:11;98366.59;;;14.09;100.00
65276;BME280;51875;49.994;14.052;2022-10-16T04:38:26;98370.28;;;14.05;100.00
65276;BME280;51875;49.994;14.052;2022-10-16T04:39:42;98372.41;;;13.96;100.00
65276;BME280;51875;49.994;14.052;2022-10-16T04:40:58;98377.34;;;13.83;100.00
65276;BME280;51875;49.994;14.052;2022-10-16T04:42:13;98370.78;;;13.94;100.00
65276;BME280;51875;49.994;14.052;2022-10-16T04:43:29;98372.72;;;13.89;100.00
65276;BME280;51875;49.994;14.052;2022-10-16T04:44:45;98379.31;;;14.20;100.00
65276;BME280;51875;49.994;14.052;2022-10-16T04:46:00;98384.34;;;14.24;100.00
65276;BME280;51875;49.994;14.052;2022-10-16T04:47:17;98378.50;;;14.38;100.00
65276;BME280;51875;49.994;14.052;2022-10-16T04:48:32;98376.84;;;14.36;100.00
65276;BME280;51875;49.994;14.052;2022-10-16T04:49:48;98381.72;;;14.45;100.00
65276;BME280;51875;49.994;14.052;2022-10-16T04:51:03;98374.38;;;14.52;100.00
65276;BME280;51875;49.994;14.052;2022-10-16T04:52:19;98374.97;;;14.59;100.00
65276;BME280;51875;49.994;14.052;2022-10-16T04:53:36;98375.59;;;14.64;100.00
65276;BME280;51875;49.994;14.052;2022-10-16T04:54:52;98382.25;;;14.73;100.00
65276;BME280;51875;49.994;14.052;2022-10-16T04:56:07;98377.59;;;14.59;100.00
65276;BME280;51875;49.994;14.052;2022-10-16T04:57:23;98373.81;;;14.64;100.00
65276;BME280;51875;49.994;14.052;2022-10-16T04:58:38;98366.69;;;14.47;100.00
65276;BME280;51875;49.994;14.052;2022-10-16T04:59:54;98382.50;;;14.66;100.00
65276;BME280;51875;49.994;14.052;2022-10-16T05:01:10;98390.00;;;14.57;100.00
65276;BME280;51875;49.994;14.052;2022-10-16T05:02:25;98388.34;;;14.54;100.00
65276;BME280;51875;49.994;14.052;2022-10-16T05:03:41;98381.31;;;14.54;100.00
65276;BME280;51875;49.994;14.052;2022-10-16T05:04:56;98391.03;;;14.52;100.00
65276;BME280;51875;49.994;14.052;2022-10-16T05:06:12;98391.34;;;14.65;100.00
65276;BME280;51875;49.994;14.052;2022-10-16T05:07:27;98391.81;;;14.75;100.00
65276;BME280;51875;49.994;14.052;2022-10-16T05:08:43;98392.31;;;14.44;100.00
65276;BME280;51875;49.994;14.052;2022-10-16T05:09:59;98398.03;;;14.53;100.00
65276;BME280;51875;49.994;14.052;2022-10-16T05:11:20;98394.09;;;14.43;100.00
65276;BME280;51875;49.994;14.052;2022-10-16T05:12:36;98392.66;;;14.36;100.00
65276;BME280;51875;49.994;14.052;2022-10-16T05:13:51;98389.38;;;14.31;100.00
65276;BME280;51875;49.994;14.052;2022-10-16T05:15:07;98387.41;;;14.55;100.00
65276;BME280;51875;49.994;14.052;2022-10-16T05:16:23;98388.50;;;14.70;100.00
65276;BME280;51875;49.994;14.052;2022-10-16T05:17:39;98385.88;;;14.70;100.00
65276;BME280;51875;49.994;14.052;2022-10-16T05:18:54;98394.97;;;14.83;100.00
65276;BME280;51875;49.994;14.052;2022-10-16T05:20:10;98396.22;;;14.94;100.00
65276;BME280;51875;49.994;14.052;2022-10-16T05:21:26;98391.19;;;14.89;100.00
65276;BME280;51875;49.994;14.052;2022-10-16T05:22:41;98394.28;;;14.78;100.00
65276;BME280;51875;49.994;14.052;2022-10-16T05:23:57;98400.28;;;14.82;100.00
65276;BME280;51875;49.994;14.052;2022-10-16T05:25:12;98402.34;;;14.94;100.00
65276;BME280;51875;49.994;14.052;2022-10-16T05:26:28;98400.06;;;14.87;100.00
65276;BME280;51875;49.994;14.052;2022-10-16T05:27:47;98400.75;;;14.71;100.00
65276;BME280;51875;49.994;14.052;2022-10-16T05:29:03;98408.28;;;14.60;100.00
65276;BME280;51875;49.994;14.052;2022-10-16T05:30:18;98403.88;;;14.60;100.00
65276;BME280;51875;49.994;14.052;2022-10-16T05:31:34;98404.88;;;14.37;100.00
65276;BME280;51875;49.994;14.052;2022-10-16T05:32:50;98403.50;;;14.49;100.00
65276;BME280;51875;49.994;14.052;2022-10-16T05:34:06;98404.88;;;14.58;100.00
65276;BME280;51875;49.994;14.052;2022-10-16T05:35:21;98402.72;;;14.47;100.00
65276;BME280;51875;49.994;14.052;2022-10-16T05:36:37;98400.16;;;14.45;100.00
65276;BME280;51875;49.994;14.052;2022-10-16T05:37:52;98409.91;;;14.43;100.00
65276;BME280;51875;49.994;14.052;2022-10-16T05:39:08;98403.75;;;14.43;100.00
65276;BME280;51875;49.994;14.052;2022-10-16T05:40:23;98405.28;;;14.48;100.00
65276;BME280;51875;49.994;14.052;2022-10-16T05:41:39;98401.94;;;14.64;100.00
65276;BME280;51875;49.994;14.052;2022-10-16T05:42:55;98404.00;;;14.78;100.00
65276;BME280;51875;49.994;14.052;2022-10-16T05:44:11;98399.56;;;14.78;100.00
65276;BME280;51875;49.994;14.052;2022-10-16T05:45:26;98404.28;;;14.91;100.00
65276;BME280;51875;49.994;14.052;2022-10-16T05:46:42;98399.78;;;14.93;100.00
65276;BME280;51875;49.994;14.052;2022-10-16T05:47:58;98406.13;;;14.89;100.00
65276;BME280;51875;49.994;14.052;2022-10-16T05:49:14;98401.38;;;14.97;100.00
65276;BME280;51875;49.994;14.052;2022-10-16T05:50:30;98409.53;;;14.91;100.00
65276;BME280;51875;49.994;14.052;2022-10-16T05:51:45;98405.28;;;14.88;100.00
65276;BME280;51875;49.994;14.052;2022-10-16T05:53:01;98404.28;;;14.91;100.00
65276;BME280;51875;49.994;14.052;2022-10-16T05:54:17;98411.03;;;14.96;100.00
65276;BME280;51875;49.994;14.052;2022-10-16T05:55:32;98413.56;;;14.60;100.00
65276;BME280;51875;49.994;14.052;2022-10-16T05:56:48;98417.72;;;14.45;100.00
65276;BME280;51875;49.994;14.052;2022-10-16T05:58:03;98416.09;;;14.42;100.00
65276;BME280;51875;49.994;14.052;2022-10-16T05:59:19;98424.63;;;14.47;100.00
65276;BME280;51875;49.994;14.052;2022-10-16T06:00:34;98417.94;;;14.40;100.00
65276;BME280;51875;49.994;14.052;2022-10-16T06:01:50;98430.09;;;14.63;100.00
65276;BME280;51875;49.994;14.052;2022-10-16T06:03:06;98429.16;;;14.64;100.00
65276;BME280;51875;49.994;14.052;2022-10-16T06:04:22;98427.91;;;14.73;100.00
65276;BME280;51875;49.994;14.052;2022-10-16T06:05:37;98436.19;;;14.85;100.00
65276;BME280;51875;49.994;14.052;2022-10-16T06:06:54;98434.63;;;15.00;100.00
65276;BME280;51875;49.994;14.052;2022-10-16T06:08:13;98440.25;;;15.11;100.00
65276;BME280;51875;49.994;14.052;2022-10-16T06:09:28;98449.28;;;14.46;100.00
65276;BME280;51875;49.994;14.052;2022-10-16T06:10:44;98444.66;;;14.51;100.00
65276;BME280;51875;49.994;14.052;2022-10-16T06:12:00;98449.06;;;14.51;100.00
65276;BME280;51875;49.994;14.052;2022-10-16T06:13:15;98449.41;;;14.43;100.00
65276;BME280;51875;49.994;14.052;2022-10-16T06:14:32;98459.41;;;14.55;100.00
65276;BME280;51875;49.994;14.052;2022-10-16T06:15:47;98459.41;;;14.55;100.00
65276;BME280;51875;49.994;14.052;2022-10-16T06:17:03;98457.09;;;14.89;100.00
65276;BME280;51875;49.994;14.052;2022-10-16T06:18:18;98460.50;;;15.10;100.00
65276;BME280;51875;49.994;14.052;2022-10-16T06:19:34;98452.88;;;15.04;100.00
65276;BME280;51875;49.994;14.052;2022-10-16T06:20:49;98455.94;;;15.14;100.00
65276;BME280;51875;49.994;14.052;2022-10-16T06:22:05;98451.38;;;15.18;100.00
65276;BME280;51875;49.994;14.052;2022-10-16T06:23:21;98454.38;;;15.29;100.00
65276;BME280;51875;49.994;14.052;2022-10-16T06:24:37;98454.94;;;15.17;100.00
65276;BME280;51875;49.994;14.052;2022-10-16T06:25:52;98453.38;;;15.32;100.00
65276;BME280;51875;49.994;14.052;2022-10-16T06:27:08;98448.47;;;15.24;100.00
65276;BME280;51875;49.994;14.052;2022-10-16T06:28:24;98441.38;;;15.24;100.00
65276;BME280;51875;49.994;14.052;2022-10-16T06:29:39;98447.66;;;15.22;100.00
65276;BME280;51875;49.994;14.052;2022-10-16T06:31:01;98452.78;;;15.44;100.00
65276;BME280;51875;49.994;14.052;2022-10-16T06:32:17;98458.31;;;15.57;100.00
65276;BME280;51875;49.994;14.052;2022-10-16T06:33:34;98457.94;;;15.65;100.00
65276;BME280;51875;49.994;14.052;2022-10-16T06:34:49;98463.72;;;15.73;100.00
65276;BME280;51875;49.994;14.052;2022-10-16T06:37:21;98472.56;;;15.72;100.00
65276;BME280;51875;49.994;14.052;2022-10-16T06:38:37;98484.53;;;15.79;100.00
65276;BME280;51875;49.994;14.052;2022-10-16T06:39:53;98479.41;;;15.76;100.00
65276;BME280;51875;49.994;14.052;2022-10-16T06:41:11;98481.81;;;15.44;100.00
65276;BME280;51875;49.994;14.052;2022-10-16T06:42:27;98485.44;;;15.22;100.00
65276;BME280;51875;49.994;14.052;2022-10-16T06:43:43;98489.00;;;15.41;100.00
65276;BME280;51875;49.994;14.052;2022-10-16T06:45:00;98487.97;;;15.62;100.00
65276;BME280;51875;49.994;14.052;2022-10-16T06:46:19;98490.97;;;15.74;100.00
65276;BME280;51875;49.994;14.052;2022-10-16T06:47:35;98496.41;;;15.71;100.00
65276;BME280;51875;49.994;14.052;2022-10-16T06:48:51;98491.88;;;15.73;100.00
65276;BME280;51875;49.994;14.052;2022-10-16T06:50:06;98505.72;;;15.78;100.00